Time;durP1;ratioP1;P1;durP2;ratioP2;P2;SDS_P1;SDS_P2;PMS_P1;PMS_P2;Temp;Humidity;BMP_temperature;BMP_pressure;BME280_temperature;BME280_humidity;BME280_pressure;Samples;Min_cycle;Max_cycle;Signal;HPM_P1;HPM_P2
2022/07/08 00:01:04;;;;;;;12.95;2.05;;;;;;;15.41;70.84;102993.53;4995440;28;20030;-69
2022/07/08 00:03:29;;;;;;;8.07;1.65;;;;;;;15.30;71.00;102998.09;4995446;28;20105;-68
2022/07/08 00:05:54;;;;;;;7.00;1.58;;;;;;;15.23;71.21;102998.94;4995190;28;20466;-68
2022/07/08 00:08:20;;;;;;;11.60;1.90;;;;;;;15.12;71.34;102979.22;4995341;28;20136;-68
2022/07/08 00:10:46;;;;;;;7.07;1.70;;;;;;;15.07;71.99;102989.31;4995298;28;20428;-69
2022/07/08 00:13:11;;;;;;;12.48;2.00;;;;;;;15.01;72.55;102987.38;4995301;28;20029;-68
2022/07/08 00:15:37;;;;;;;11.05;1.90;;;;;;;14.94;73.30;102992.41;4993966;28;20502;-67
2022/07/08 00:18:02;;;;;;;13.32;1.92;;;;;;;14.84;73.95;102996.94;4995155;28;20022;-68
2022/07/08 00:20:28;;;;;;;14.82;2.08;;;;;;;14.89;73.99;102999.91;4995145;28;20027;-68
2022/07/08 00:22:53;;;;;;;9.02;1.58;;;;;;;14.88;74.18;102995.69;4995071;28;20370;-67
2022/07/08 00:25:18;;;;;;;12.02;2.10;;;;;;;14.71;75.16;102991.41;4994907;28;20042;-70
2022/07/08 00:27:44;;;;;;;9.18;1.77;;;;;;;14.69;75.95;102981.16;4991990;28;20030;-68
2022/07/08 00:30:10;;;;;;;8.55;1.85;;;;;;;14.56;76.47;102994.66;4993833;28;20027;-68
2022/07/08 00:32:36;;;;;;;13.75;2.05;;;;;;;14.54;76.50;102995.78;4993516;28;20026;-68
2022/07/08 00:35:02;;;;;;;12.90;2.00;;;;;;;14.68;77.00;102996.94;4993322;28;20033;-67
2022/07/08 00:37:27;;;;;;;7.30;1.83;;;;;;;14.66;76.67;102997.09;4992209;28;20454;-67
2022/07/08 00:39:52;;;;;;;10.93;1.90;;;;;;;14.73;76.52;102998.09;4994501;28;20023;-68
2022/07/08 00:42:17;;;;;;;11.15;2.05;;;;;;;14.71;76.41;102996.63;4994583;28;20125;-67
2022/07/08 00:44:43;;;;;;;11.88;1.85;;;;;;;14.66;76.43;102997.09;4993425;28;20030;-68
2022/07/08 00:47:08;;;;;;;11.43;2.03;;;;;;;14.60;76.90;102987.31;4994506;28;20033;-68
2022/07/08 00:49:33;;;;;;;11.40;1.98;;;;;;;14.66;76.65;102997.09;4993363;28;20023;-68
2022/07/08 00:51:59;;;;;;;7.22;1.65;;;;;;;14.70;76.83;103003.59;4994142;28;20476;-68
2022/07/08 00:54:26;;;;;;;15.68;2.10;;;;;;;14.73;76.54;102995.50;4994050;28;20057;-68
2022/07/08 00:56:51;;;;;;;11.55;2.00;;;;;;;14.72;76.62;102988.66;4994103;28;20061;-67
2022/07/08 00:59:17;;;;;;;12.80;2.17;;;;;;;14.78;76.79;102990.59;5009383;28;20026;-68
2022/07/08 01:01:42;;;;;;;7.65;1.77;;;;;;;14.76;77.54;102995.19;4994313;28;20478;-68
2022/07/08 01:04:08;;;;;;;13.80;2.13;;;;;;;14.58;77.43;102995.28;4993102;28;20060;-68
2022/07/08 01:06:34;;;;;;;14.73;2.28;;;;;;;14.54;78.34;102993.19;4993004;28;20482;-68
2022/07/08 01:08:59;;;;;;;10.27;1.90;;;;;;;14.56;78.24;103001.66;4994173;28;20035;-68
2022/07/08 01:11:25;;;;;;;7.93;1.90;;;;;;;14.41;78.10;103007.44;4993065;28;20343;-68
2022/07/08 01:13:51;;;;;;;13.48;2.38;;;;;;;14.31;78.81;103001.53;4992872;28;20026;-69
2022/07/08 01:16:17;;;;;;;10.60;1.88;;;;;;;14.29;78.77;103000.88;4994103;28;20367;-68
2022/07/08 01:18:42;;;;;;;15.25;2.47;;;;;;;14.18;79.43;103007.19;4994060;28;20034;-68
2022/07/08 01:21:08;;;;;;;14.82;2.20;;;;;;;14.17;79.51;103009.94;4994069;28;20366;-68
2022/07/08 01:23:34;;;;;;;9.73;1.77;;;;;;;14.11;79.63;103005.34;4994004;28;20101;-68
2022/07/08 01:26:00;;;;;;;9.40;2.17;;;;;;;14.07;80.30;103004.84;4992611;28;20133;-69
2022/07/08 01:28:26;;;;;;;12.13;2.20;;;;;;;14.08;79.91;103009.06;4994001;28;20030;-69
2022/07/08 01:30:51;;;;;;;9.23;1.98;;;;;;;13.98;80.09;103014.41;4993848;28;20386;-68
2022/07/08 01:33:17;;;;;;;11.40;2.25;;;;;;;13.80;81.03;103013.63;4993883;28;20061;-68
2022/07/08 01:35:42;;;;;;;10.70;2.10;;;;;;;13.70;81.61;103015.53;4992784;28;20121;-68
2022/07/08 01:38:07;;;;;;;13.15;2.10;;;;;;;13.59;82.14;103006.22;4993859;28;20034;-68
2022/07/08 01:40:33;;;;;;;9.48;2.00;;;;;;;13.63;81.78;103004.91;4993840;28;20030;-69
2022/07/08 01:42:58;;;;;;;8.95;2.00;;;;;;;13.58;82.06;103004.59;4993495;28;20482;-68
2022/07/08 01:45:23;;;;;;;9.48;1.98;;;;;;;13.56;82.26;103006.50;4992547;28;20101;-68
2022/07/08 01:47:49;;;;;;;20.42;2.58;;;;;;;13.65;82.65;103008.19;4993616;28;20033;-69
2022/07/08 01:50:14;;;;;;;12.57;2.08;;;;;;;13.77;82.19;102996.56;4993733;28;20015;-68
2022/07/08 01:52:39;;;;;;;10.20;2.40;;;;;;;13.87;81.87;102991.28;4993571;28;20034;-68
2022/07/08 01:55:05;;;;;;;9.07;2.15;;;;;;;13.89;81.63;102993.69;4992324;28;20028;-68
2022/07/08 01:57:31;;;;;;;7.80;2.20;;;;;;;13.66;82.09;102991.63;4992437;28;20496;-68
2022/07/08 01:59:57;;;;;;;10.32;2.00;;;;;;;13.50;83.04;102996.72;5008581;28;20054;-69
2022/07/08 02:02:22;;;;;;;9.60;2.00;;;;;;;13.26;83.98;102989.56;4992317;28;20532;-68
2022/07/08 02:04:47;;;;;;;13.23;2.10;;;;;;;13.13;84.68;102989.94;4992243;28;20026;-68
2022/07/08 02:07:14;;;;;;;10.80;2.13;;;;;;;13.19;85.35;102988.53;4993537;28;20048;-68
2022/07/08 02:09:40;;;;;;;12.48;2.30;;;;;;;13.19;84.94;103006.69;4997352;28;20046;-68
2022/07/08 02:12:19;;;;;;;10.35;2.30;;;;;;;13.07;84.94;103006.09;4996326;28;20465;-68
2022/07/08 02:14:53;;;;;;;9.00;2.15;;;;;;;13.02;85.80;103003.94;4997428;28;20390;-68
2022/07/08 02:17:21;;;;;;;11.30;2.30;;;;;;;12.96;85.88;102998.53;4997368;28;20049;-69
2022/07/08 02:19:46;;;;;;;9.88;2.13;;;;;;;12.99;85.94;103004.25;4997309;28;20030;-68
2022/07/08 02:22:12;;;;;;;15.63;2.58;;;;;;;13.05;86.26;103006.25;4997277;28;20397;-69
2022/07/08 02:24:38;;;;;;;9.77;2.53;;;;;;;12.99;85.87;102990.47;4997363;28;20489;-69
2022/07/08 02:27:04;;;;;;;15.45;2.60;;;;;;;13.08;85.56;102997.34;4997043;28;20093;-69
2022/07/08 02:29:30;;;;;;;12.68;2.28;;;;;;;13.07;85.52;102990.53;4996006;28;20529;-68
2022/07/08 02:31:56;;;;;;;11.25;2.53;;;;;;;13.12;84.83;102992.66;4997177;28;20069;-68
2022/07/08 02:34:21;;;;;;;16.95;2.50;;;;;;;13.11;84.97;102991.84;4997081;28;20033;-68
2022/07/08 02:36:46;;;;;;;10.52;2.42;;;;;;;13.03;85.44;102990.03;4996938;28;20026;-68
2022/07/08 02:39:15;;;;;;;10.25;2.55;;;;;;;13.05;85.15;102992.44;5012072;28;20440;-68
2022/07/08 02:41:41;;;;;;;17.25;3.08;;;;;;;12.95;85.23;102996.91;4996789;28;20057;-68
2022/07/08 02:44:07;;;;;;;10.52;2.65;;;;;;;12.80;86.76;102986.22;4996867;28;20100;-68
2022/07/08 02:46:33;;;;;;;11.15;2.58;;;;;;;12.96;85.71;102980.38;4995739;28;20124;-68
2022/07/08 02:48:59;;;;;;;11.43;2.47;;;;;;;12.91;85.49;102983.41;4995454;28;20030;-69
2022/07/08 02:51:24;;;;;;;11.15;2.20;;;;;;;12.76;85.44;102969.31;4996831;28;20073;-68
2022/07/08 02:53:49;;;;;;;13.75;2.80;;;;;;;12.81;86.11;102988.69;4996753;28;20057;-69
2022/07/08 02:56:14;;;;;;;6.72;2.10;;;;;;;12.79;85.92;102982.81;4996689;28;20371;-68
2022/07/08 02:58:40;;;;;;;9.80;2.30;;;;;;;12.90;85.99;102981.78;5011806;28;20030;-68
2022/07/08 03:01:05;;;;;;;10.95;2.40;;;;;;;12.81;85.87;102983.50;4995164;28;20026;-68
2022/07/08 03:03:30;;;;;;;9.88;2.20;;;;;;;12.81;86.20;102993.06;4996592;28;20027;-68
2022/07/08 03:05:55;;;;;;;10.07;2.00;;;;;;;12.69;85.80;102970.88;4996432;28;20436;-68
2022/07/08 03:08:21;;;;;;;10.45;2.88;;;;;;;12.65;86.48;102991.91;4995284;28;20033;-69
2022/07/08 03:10:46;;;;;;;8.73;2.00;;;;;;;12.67;87.31;102988.38;4996322;28;20030;-69
2022/07/08 03:13:11;;;;;;;7.60;2.20;;;;;;;12.63;86.73;102996.44;4996388;28;20026;-68
2022/07/08 03:15:37;;;;;;;8.27;2.22;;;;;;;12.65;86.54;102989.31;4995101;28;20125;-69
2022/07/08 03:18:02;;;;;;;9.70;2.28;;;;;;;12.83;86.67;103001.50;4996301;28;20033;-68
2022/07/08 03:20:27;;;;;;;15.15;2.92;;;;;;;12.76;86.39;102993.50;4995922;28;20023;-69
2022/07/08 03:22:52;;;;;;;7.47;2.30;;;;;;;12.77;86.30;103000.28;4994850;28;20489;-68
2022/07/08 03:25:18;;;;;;;10.75;2.42;;;;;;;12.74;87.32;102999.78;4996118;28;20041;-69
2022/07/08 03:27:43;;;;;;;10.52;2.40;;;;;;;12.82;87.22;102999.88;4994783;28;20057;-68
2022/07/08 03:30:08;;;;;;;20.45;2.42;;;;;;;12.83;86.57;102980.72;4996140;28;20018;-68
2022/07/08 03:32:34;;;;;;;10.55;2.30;;;;;;;12.91;86.50;102991.19;4994658;28;20395;-68
2022/07/08 03:34:59;;;;;;;11.88;2.20;;;;;;;12.88;86.55;102992.31;4995870;28;20030;-68
2022/07/08 03:37:25;;;;;;;12.25;2.00;;;;;;;12.77;86.42;102994.28;4996053;28;20069;-68
2022/07/08 03:39:53;;;;;;;13.60;2.63;;;;;;;12.70;87.74;102988.06;4995800;28;20034;-68
2022/07/08 03:42:18;;;;;;;8.77;2.40;;;;;;;12.69;87.52;102987.28;4995778;28;20413;-68
2022/07/08 03:44:44;;;;;;;15.00;2.30;;;;;;;12.73;87.46;102987.78;4995767;28;20026;-68
2022/07/08 03:47:09;;;;;;;11.63;2.38;;;;;;;12.77;86.99;102992.50;4995841;28;20030;-69
2022/07/08 03:49:34;;;;;;;11.65;2.33;;;;;;;12.82;86.90;102987.69;5010742;28;20022;-68
2022/07/08 03:52:01;;;;;;;7.10;2.25;;;;;;;12.83;86.97;102998.88;4995667;28;20081;-68
2022/07/08 03:54:27;;;;;;;8.25;2.25;;;;;;;12.95;86.96;102996.91;4995517;28;20021;-70
2022/07/08 03:56:52;;;;;;;8.77;2.00;;;;;;;13.03;86.24;103000.41;4995588;28;20034;-68
2022/07/08 03:59:18;;;;;;;11.90;2.35;;;;;;;13.05;85.65;103006.25;4995572;28;20097;-68
2022/07/08 04:01:43;;;;;;;8.05;2.38;;;;;;;13.04;85.93;103004.63;4995493;28;20093;-68
2022/07/08 04:04:09;;;;;;;6.82;2.10;;;;;;;12.97;86.41;103003.56;4995508;28;20030;-69
2022/07/08 04:06:34;;;;;;;11.90;2.50;;;;;;;13.10;86.48;103006.63;4995422;28;20026;-68
2022/07/08 04:08:59;;;;;;;11.63;2.58;;;;;;;13.15;85.90;103015.72;4995338;28;20140;-68
2022/07/08 04:11:24;;;;;;;10.10;2.15;;;;;;;13.19;86.42;103010.09;4994062;28;20014;-69
2022/07/08 04:13:50;;;;;;;10.38;2.15;;;;;;;13.31;85.93;103011.50;4995470;28;20023;-68
2022/07/08 04:16:15;;;;;;;12.38;2.20;;;;;;;13.30;85.52;103011.69;4995150;28;20145;-68
2022/07/08 04:18:41;;;;;;;13.68;2.20;;;;;;;13.29;85.94;103010.88;4993895;28;20470;-68
2022/07/08 04:21:10;;;;;;;12.43;2.50;;;;;;;13.18;86.08;102997.28;4995642;28;20054;-69
2022/07/08 04:23:37;;;;;;;12.63;2.30;;;;;;;13.39;85.87;103010.78;4993704;28;20030;-68
2022/07/08 04:26:03;;;;;;;12.23;2.15;;;;;;;13.46;85.74;103021.38;4993608;28;20038;-68
2022/07/08 04:28:28;;;;;;;10.93;2.28;;;;;;;13.58;85.65;103017.56;4994522;28;20359;-68
2022/07/08 04:30:56;;;;;;;15.77;2.70;;;;;;;13.60;85.12;103027.81;4992698;28;20046;-69
2022/07/08 04:33:22;;;;;;;14.32;2.38;;;;;;;13.61;85.69;103024.22;4992867;28;20146;-68
2022/07/08 04:35:47;;;;;;;11.27;2.25;;;;;;;13.70;85.54;103021.53;4994361;28;20107;-69
2022/07/08 04:38:12;;;;;;;8.93;2.40;;;;;;;13.82;84.98;103023.88;4993483;28;20113;-68
2022/07/08 04:40:38;;;;;;;10.73;2.13;;;;;;;13.85;84.94;103033.97;4994722;28;20019;-68
2022/07/08 04:43:03;;;;;;;8.27;2.30;;;;;;;13.98;84.22;103035.19;4993269;28;20046;-68
2022/07/08 04:45:28;;;;;;;9.85;2.38;;;;;;;13.95;84.29;103038.09;4994733;28;20038;-68
2022/07/08 04:47:54;;;;;;;10.77;2.10;;;;;;;14.01;84.51;103036.66;4992494;28;20477;-69
2022/07/08 04:50:19;;;;;;;12.27;2.25;;;;;;;14.22;83.39;103044.91;4994952;28;20365;-68
2022/07/08 04:52:45;;;;;;;9.07;2.13;;;;;;;14.36;82.68;103040.88;4993265;28;20029;-67
2022/07/08 04:55:27;;;;;;;12.13;2.00;;;;;;;14.52;82.08;103044.53;4994593;28;20072;-68
2022/07/08 04:57:59;;;;;;;9.43;2.22;;;;;;;14.74;81.65;103048.34;4993192;28;20026;-70
2022/07/08 05:00:25;;;;;;;13.52;2.30;;;;;;;15.06;80.72;103050.19;4994469;28;20030;-68
2022/07/08 05:02:51;;;;;;;12.43;2.15;;;;;;;15.22;79.67;103044.16;4994451;28;20101;-67
2022/07/08 05:05:20;;;;;;;9.50;2.05;;;;;;;15.32;79.46;103050.03;4994332;28;20517;-67
2022/07/08 05:07:47;;;;;;;11.27;1.80;;;;;;;15.61;78.78;103057.34;4994278;28;20446;-68
2022/07/08 05:10:14;;;;;;;11.60;2.30;;;;;;;15.70;77.72;103056.38;4992931;28;20073;-67
2022/07/08 05:12:39;;;;;;;11.50;2.38;;;;;;;15.73;77.03;103056.06;4993096;28;20041;-68
2022/07/08 05:15:05;;;;;;;13.13;2.00;;;;;;;15.62;77.33;103060.75;4992841;28;20101;-68
2022/07/08 05:17:30;;;;;;;8.68;2.17;;;;;;;15.81;77.18;103064.84;4992972;28;20116;-69
2022/07/08 05:19:55;;;;;;;12.85;2.75;;;;;;;15.96;75.95;103066.59;4994295;28;20027;-68
2022/07/08 05:22:21;;;;;;;9.98;2.00;;;;;;;15.86;77.31;103062.56;5008195;28;20084;-69
2022/07/08 05:24:46;;;;;;;7.55;1.90;;;;;;;15.70;78.34;103069.41;4991856;28;20478;-69
2022/07/08 05:27:11;;;;;;;11.57;2.30;;;;;;;15.73;77.68;103076.09;4991531;28;20030;-69
2022/07/08 05:29:36;;;;;;;10.88;2.20;;;;;;;15.62;78.56;103071.19;4992698;28;20026;-69
2022/07/08 05:32:02;;;;;;;8.68;2.28;;;;;;;15.64;78.67;103075.25;4992859;28;20410;-68
2022/07/08 05:34:27;;;;;;;13.35;2.35;;;;;;;15.70;78.13;103079.03;4992711;28;20027;-70
2022/07/08 05:36:52;;;;;;;9.27;1.90;;;;;;;15.81;77.93;103073.47;4992181;28;20169;-68
2022/07/08 05:39:18;;;;;;;10.40;2.00;;;;;;;15.64;78.74;103075.25;4993943;28;20496;-68
2022/07/08 05:41:43;;;;;;;9.32;2.10;;;;;;;15.48;79.15;103078.72;4993538;28;20050;-68
2022/07/08 05:44:09;;;;;;;10.85;2.10;;;;;;;15.65;78.29;103078.69;4993475;28;20042;-68
2022/07/08 05:46:34;;;;;;;9.85;1.80;;;;;;;15.72;78.90;103077.91;4992694;28;20019;-69
2022/07/08 05:48:59;;;;;;;9.85;2.20;;;;;;;15.56;78.54;103075.25;4990677;28;20026;-68
2022/07/08 05:51:25;;;;;;;8.40;1.92;;;;;;;15.61;79.11;103080.00;4992468;28;20125;-69
2022/07/08 05:53:52;;;;;;;11.88;2.00;;;;;;;15.84;79.26;103087.97;4992481;28;20081;-69
2022/07/08 05:56:17;;;;;;;8.82;2.00;;;;;;;15.80;78.95;103066.66;4993529;28;20526;-68
2022/07/08 05:58:43;;;;;;;13.60;2.78;;;;;;;15.95;79.24;103095.47;4993599;28;20065;-68
2022/07/08 06:01:08;;;;;;;8.80;2.17;;;;;;;16.13;78.89;103090.03;4993539;28;20073;-68
2022/07/08 06:03:33;;;;;;;11.80;2.15;;;;;;;16.21;79.09;103093.44;5008557;28;20026;-68
2022/07/08 06:05:58;;;;;;;7.85;1.70;;;;;;;16.48;77.40;103093.97;4993506;28;20022;-68
2022/07/08 06:08:24;;;;;;;12.93;1.83;;;;;;;16.57;77.07;103087.75;4993262;28;20027;-69
2022/07/08 06:10:49;;;;;;;13.40;2.30;;;;;;;16.82;76.72;103083.22;5008072;28;20037;-68
2022/07/08 06:13:14;;;;;;;11.48;1.90;;;;;;;16.94;75.54;103095.91;4993379;28;20026;-68
2022/07/08 06:15:40;;;;;;;13.70;2.58;;;;;;;17.05;75.53;103082.44;4992342;28;20440;-68
2022/07/08 06:18:05;;;;;;;9.90;1.95;;;;;;;17.16;74.65;103078.63;4992790;28;20030;-68
2022/07/08 06:20:32;;;;;;;11.13;1.90;;;;;;;17.33;73.44;103087.94;4991989;28;20446;-69
2022/07/08 06:22:57;;;;;;;10.73;2.05;;;;;;;17.10;74.23;103091.38;4993274;28;20026;-68
2022/07/08 06:25:23;;;;;;;14.10;2.30;;;;;;;17.23;74.74;103096.00;4993530;28;20554;-68
2022/07/08 06:27:48;;;;;;;12.93;2.08;;;;;;;17.37;72.76;103079.56;4993176;28;20030;-69
2022/07/08 06:30:13;;;;;;;9.05;1.90;;;;;;;17.47;72.91;103081.16;4993258;28;20018;-68
2022/07/08 06:32:39;;;;;;;9.85;2.28;;;;;;;17.69;72.38;103074.22;4992143;28;20084;-70
2022/07/08 06:35:04;;;;;;;8.98;2.08;;;;;;;18.03;70.23;103068.50;4992115;28;20030;-69
2022/07/08 06:37:30;;;;;;;11.65;2.65;;;;;;;18.21;70.64;103089.91;4993296;28;20115;-67
2022/07/08 06:39:55;;;;;;;10.48;2.15;;;;;;;17.88;70.90;103092.06;4993121;28;20022;-68
2022/07/08 06:42:21;;;;;;;13.32;2.30;;;;;;;17.95;70.88;103092.97;4991734;28;20485;-68
2022/07/08 06:44:46;;;;;;;12.82;2.15;;;;;;;19.64;68.26;103105.84;5008260;28;20026;-67
2022/07/08 06:47:11;;;;;;;10.43;2.15;;;;;;;20.20;63.81;103096.13;4993087;28;20039;-68
2022/07/08 06:49:37;;;;;;;9.57;1.98;;;;;;;20.39;62.62;103096.41;4993048;28;20022;-67
2022/07/08 06:52:03;;;;;;;14.15;2.22;;;;;;;22.78;55.83;103098.81;4993061;28;20118;-67
2022/07/08 06:54:47;;;;;;;12.45;2.10;;;;;;;22.53;56.08;103091.69;4992752;28;20474;-69
2022/07/08 06:57:14;;;;;;;11.02;2.30;;;;;;;21.81;58.20;103096.19;4994545;28;20037;-68
2022/07/08 06:59:39;;;;;;;15.57;2.30;;;;;;;21.07;60.06;103105.09;4994814;28;20054;-69
2022/07/08 07:02:05;;;;;;;12.80;2.20;;;;;;;20.81;60.26;103102.44;4995222;28;20050;-69
2022/07/08 07:04:30;;;;;;;12.60;2.28;;;;;;;20.84;60.41;103100.22;4996954;28;20026;-69
2022/07/08 07:06:56;;;;;;;11.85;2.50;;;;;;;20.59;61.81;103107.00;4997154;28;20033;-69
2022/07/08 07:09:21;;;;;;;13.70;2.65;;;;;;;20.77;60.72;103104.63;4995919;28;20026;-68
2022/07/08 07:11:47;;;;;;;9.68;2.22;;;;;;;21.10;60.81;103096.81;4995603;28;20022;-71
2022/07/08 07:14:12;;;;;;;10.68;2.13;;;;;;;21.59;58.92;103094.81;4995382;28;20030;-69
2022/07/08 07:16:38;;;;;;;8.32;2.05;;;;;;;21.73;58.32;103090.34;4995319;28;20034;-67
2022/07/08 07:19:03;;;;;;;9.00;2.20;;;;;;;21.18;60.31;103087.91;4996591;28;20022;-67
2022/07/08 07:21:29;;;;;;;12.13;1.90;;;;;;;20.96;61.87;103095.16;4995213;28;20023;-67
2022/07/08 07:23:54;;;;;;;22.23;2.80;;;;;;;20.84;61.83;103081.00;4995437;28;20465;-68
2022/07/08 07:26:19;;;;;;;14.52;2.20;;;;;;;20.95;61.27;103093.56;4996636;28;20109;-68
2022/07/08 07:28:45;;;;;;;13.77;2.30;;;;;;;20.18;63.51;103095.50;4996832;28;20036;-68
2022/07/08 07:31:10;;;;;;;10.10;2.50;;;;;;;20.48;62.69;103100.47;4995606;28;20026;-67
2022/07/08 07:33:36;;;;;;;11.80;2.42;;;;;;;20.90;62.07;103101.22;4995516;28;20034;-67
2022/07/08 07:36:01;;;;;;;13.48;2.22;;;;;;;21.05;61.28;103096.59;5011524;28;20022;-68
2022/07/08 07:38:27;;;;;;;12.88;2.47;;;;;;;21.37;60.07;103096.84;4996166;28;20113;-66
2022/07/08 07:40:52;;;;;;;13.20;2.33;;;;;;;22.03;58.48;103090.66;4996049;28;20496;-67
2022/07/08 07:43:17;;;;;;;12.50;2.42;;;;;;;22.37;57.87;103094.78;4995783;28;20054;-68
2022/07/08 07:45:43;;;;;;;13.77;2.33;;;;;;;22.50;57.12;103086.84;4994687;28;20432;-67
2022/07/08 07:48:08;;;;;;;13.57;2.20;;;;;;;22.25;57.31;103086.75;4995909;28;20033;-67
2022/07/08 07:50:34;;;;;;;10.38;2.40;;;;;;;22.21;57.59;103090.00;4995895;28;20123;-67
2022/07/08 07:52:59;;;;;;;11.90;1.90;;;;;;;22.81;55.76;103093.13;4996001;28;20451;-68
2022/07/08 07:55:24;;;;;;;12.60;2.75;;;;;;;23.26;55.20;103086.94;4995590;28;20018;-68
2022/07/08 07:57:49;;;;;;;15.07;2.83;;;;;;;23.33;56.38;103085.88;4995552;28;20041;-68
2022/07/08 08:00:16;;;;;;;8.23;2.10;;;;;;;23.43;54.52;103090.66;4995456;28;20082;-68
2022/07/08 08:02:42;;;;;;;8.90;2.03;;;;;;;23.16;54.64;103100.59;4995298;28;20037;-70
2022/07/08 08:05:11;;;;;;;8.55;2.00;;;;;;;23.50;54.89;103085.28;4993667;28;20037;-68
2022/07/08 08:07:41;;;;;;;9.43;2.03;;;;;;;23.83;54.20;103085.78;4994692;28;20121;-69
2022/07/08 08:10:07;;;;;;;6.53;1.88;;;;;;;23.96;53.21;103089.31;4995155;28;20437;-68
2022/07/08 08:12:33;;;;;;;8.70;2.53;;;;;;;23.84;53.84;103097.16;4993824;28;20026;-68
2022/07/08 08:14:58;;;;;;;10.05;2.13;;;;;;;23.42;54.20;103103.03;4995066;28;20073;-68
2022/07/08 08:17:23;;;;;;;7.22;2.40;;;;;;;23.66;53.86;103100.56;4993870;28;20026;-69
2022/07/08 08:19:49;;;;;;;8.45;1.90;;;;;;;24.00;52.38;103101.06;4993547;28;20061;-68
2022/07/08 08:22:14;;;;;;;11.52;2.17;;;;;;;24.27;51.78;103099.69;4994992;28;20033;-68
2022/07/08 08:24:40;;;;;;;18.27;3.05;;;;;;;24.23;51.73;103092.44;4995026;28;20026;-68
2022/07/08 08:27:05;;;;;;;13.00;2.47;;;;;;;24.02;53.23;103097.13;4993940;28;20033;-68
2022/07/08 08:29:30;;;;;;;8.63;2.13;;;;;;;24.17;53.69;103082.75;4994241;28;20022;-67
2022/07/08 08:31:56;;;;;;;7.55;1.60;;;;;;;24.24;51.21;103084.28;4994152;28;20080;-70
2022/07/08 08:34:22;;;;;;;7.50;1.70;;;;;;;24.41;51.49;103088.97;4995642;28;20529;-70
2022/07/08 08:36:47;;;;;;;6.85;1.80;;;;;;;24.29;50.64;103097.63;4995866;28;20109;-69
2022/07/08 08:39:13;;;;;;;7.90;1.80;;;;;;;24.36;50.59;103092.25;4994409;28;20022;-70
2022/07/08 08:41:40;;;;;;;6.75;2.05;;;;;;;24.21;51.09;103087.38;4995077;28;21842;-71
2022/07/08 08:44:05;;;;;;;9.40;1.95;;;;;;;25.06;48.94;103099.63;4994247;28;20030;-72
2022/07/08 08:46:32;;;;;;;12.13;2.45;;;;;;;24.67;50.20;103093.88;4993879;28;20504;-70
2022/07/08 08:48:58;;;;;;;8.20;2.00;;;;;;;24.22;50.35;103099.53;4995166;28;20026;-71
2022/07/08 08:51:24;;;;;;;6.88;1.70;;;;;;;24.51;50.42;103091.88;4994938;28;20073;-71
2022/07/08 08:53:53;;;;;;;11.35;2.05;;;;;;;24.41;50.86;103097.69;4993362;28;20398;-71
2022/07/08 08:56:19;;;;;;;8.52;2.10;;;;;;;23.60;52.51;103088.25;4993373;28;20022;-71
2022/07/08 08:58:46;;;;;;;7.57;2.00;;;;;;;24.70;51.39;103088.16;4993142;28;20109;-72
2022/07/08 09:01:18;;;;;;;8.98;1.77;;;;;;;24.81;50.02;103089.22;4994245;28;20474;-71
2022/07/08 09:03:45;;;;;;;9.05;1.90;;;;;;;25.06;48.31;103089.03;4994523;28;20056;-71
2022/07/08 09:06:10;;;;;;;7.05;1.70;;;;;;;24.90;48.27;103089.69;4994373;28;20037;-70
2022/07/08 09:08:36;;;;;;;7.00;1.92;;;;;;;24.59;49.96;103078.34;4994218;28;20022;-71
2022/07/08 09:11:02;;;;;;;6.60;1.60;;;;;;;24.76;48.44;103091.72;4994392;28;20026;-70
2022/07/08 09:13:27;;;;;;;12.70;2.03;;;;;;;24.09;49.46;103083.88;4994374;28;20022;-71
2022/07/08 09:15:55;;;;;;;12.40;2.25;;;;;;;24.49;50.03;103091.31;4993778;28;20037;-72
2022/07/08 09:18:22;;;;;;;8.18;1.67;;;;;;;24.85;49.13;103084.28;4994066;28;20045;-71
2022/07/08 09:20:52;;;;;;;8.13;1.90;;;;;;;25.23;48.23;103064.56;4994729;28;20030;-71
2022/07/08 09:23:26;;;;;;;10.38;1.90;;;;;;;25.54;47.80;103089.84;4994402;28;20100;-71
2022/07/08 09:25:56;;;;;;;12.48;2.17;;;;;;;25.38;47.49;103083.44;4993108;28;20022;-71
2022/07/08 09:28:29;;;;;;;8.60;2.10;;;;;;;25.43;47.69;103091.47;4993392;28;20113;-70
2022/07/08 09:30:56;;;;;;;9.43;2.05;;;;;;;24.26;49.04;103084.06;4994657;28;20089;-71
2022/07/08 09:33:23;;;;;;;7.45;2.17;;;;;;;24.23;49.80;103084.53;4993178;28;20366;-71
2022/07/08 09:35:50;;;;;;;7.03;2.08;;;;;;;24.95;48.44;103092.47;4994554;28;20033;-71
2022/07/08 09:38:19;;;;;;;5.03;1.80;;;;;;;25.18;47.77;103094.38;4994500;28;20037;-71
2022/07/08 09:41:02;;;;;;;9.93;2.05;;;;;;;25.81;46.63;103090.19;4994048;28;20453;-71
2022/07/08 09:43:27;;;;;;;11.13;2.95;;;;;;;26.27;46.04;103075.19;4995270;28;20046;-71
2022/07/08 09:45:53;;;;;;;9.32;1.98;;;;;;;26.02;46.29;103078.16;4992954;28;20425;-70
2022/07/08 09:48:19;;;;;;;8.32;2.65;;;;;;;26.44;46.03;103085.81;4992875;28;20026;-70
2022/07/08 09:50:48;;;;;;;14.07;2.20;;;;;;;26.57;44.03;103079.44;4994177;28;20033;-69
2022/07/08 09:53:17;;;;;;;8.80;2.40;;;;;;;26.50;44.72;103091.00;4994131;28;20026;-70
2022/07/08 09:55:46;;;;;;;6.40;2.20;;;;;;;25.32;46.39;103079.88;4992433;28;20026;-70
2022/07/08 09:58:15;;;;;;;7.05;1.65;;;;;;;25.03;47.79;103088.66;4994434;28;20516;-71
2022/07/08 10:00:42;;;;;;;24.25;13.57;;;;;;;25.78;46.97;103082.66;4993806;28;20027;-71
2022/07/08 10:03:07;;;;;;;18.95;14.40;;;;;;;25.55;46.60;103079.03;4993821;28;20187;-71
2022/07/08 10:05:33;;;;;;;6.63;2.00;;;;;;;25.81;45.51;103074.28;4992924;28;20489;-71
2022/07/08 10:07:59;;;;;;;10.18;2.05;;;;;;;26.07;45.19;103081.72;4993057;28;20098;-73
2022/07/08 10:10:25;;;;;;;10.10;5.43;;;;;;;25.87;46.48;103083.97;4994016;28;20385;-72
2022/07/08 10:12:57;;;;;;;9.68;2.35;;;;;;;25.34;46.96;103090.22;4994370;28;20077;-71
2022/07/08 10:15:24;;;;;;;10.98;3.40;;;;;;;25.54;47.31;103092.50;4994015;28;20050;-71
2022/07/08 10:17:50;;;;;;;23.08;18.25;;;;;;;25.04;47.73;103090.28;4992663;28;20537;-71
2022/07/08 10:20:17;;;;;;;9.05;4.05;;;;;;;24.99;46.97;103098.91;4993601;28;20114;-71
2022/07/08 10:22:48;;;;;;;11.20;3.03;;;;;;;25.63;45.75;103093.75;4992462;28;20123;-71
2022/07/08 10:25:15;;;;;;;11.20;4.30;;;;;;;25.93;45.77;103075.09;4994206;28;20092;-71
2022/07/08 10:27:40;;;;;;;8.77;4.72;;;;;;;26.33;44.63;103088.28;4993566;28;20363;-71
2022/07/08 10:30:16;;;;;;;8.75;3.75;;;;;;;26.66;44.66;103083.31;4996037;28;20461;-70
2022/07/08 10:32:45;;;;;;;8.93;2.90;;;;;;;26.31;43.65;103084.28;4995778;28;20027;-70
2022/07/08 10:35:13;;;;;;;6.43;3.13;;;;;;;26.62;43.98;103079.53;4997248;28;20022;-71
2022/07/08 10:37:54;;;;;;;8.77;4.20;;;;;;;26.88;43.52;103084.22;4997131;28;20034;-72
2022/07/08 10:40:37;;;;;;;7.95;3.60;;;;;;;26.68;42.94;103083.88;4997061;28;20113;-71
2022/07/08 10:43:20;;;;;;;5.97;2.80;;;;;;;26.25;43.58;103082.56;4995607;28;20576;-71
2022/07/08 10:45:59;;;;;;;11.50;4.13;;;;;;;26.86;43.41;103075.69;4996904;28;20088;-72
2022/07/08 10:48:45;;;;;;;8.68;2.17;;;;;;;26.95;40.47;103074.22;4995494;28;20381;-70
2022/07/08 10:51:20;;;;;;;9.95;2.45;;;;;;;27.09;40.92;103072.03;4996787;28;20494;-72
2022/07/08 10:53:53;;;;;;;5.20;2.47;;;;;;;27.52;41.07;103069.75;4994890;28;20394;-71
2022/07/08 10:56:50;;;;;;;8.23;2.63;;;;;;;27.75;40.67;103069.50;4996892;28;20072;-70
2022/07/08 10:59:23;;;;;;;6.38;2.40;;;;;;;27.76;40.17;103070.28;4996813;28;20018;-71
2022/07/08 11:01:52;;;;;;;6.90;2.67;;;;;;;27.53;39.71;103072.13;4996728;28;20030;-71
2022/07/08 11:04:29;;;;;;;5.93;2.05;;;;;;;27.63;39.54;103074.13;4996550;28;20054;-71
2022/07/08 11:06:56;;;;;;;6.22;2.55;;;;;;;28.01;38.78;103073.25;4995722;28;20029;-70
2022/07/08 11:09:23;;;;;;;4.63;1.50;;;;;;;27.74;37.30;103062.59;4996443;28;20026;-71
2022/07/08 11:11:49;;;;;;;5.25;1.60;;;;;;;27.35;39.47;103075.88;4995229;28;20073;-69
2022/07/08 11:14:15;;;;;;;12.60;1.85;;;;;;;27.54;38.64;103068.44;4996435;28;20066;-70
2022/07/08 11:16:40;;;;;;;7.88;2.58;;;;;;;27.64;38.63;103070.41;4996397;28;20101;-71
2022/07/08 11:19:06;;;;;;;6.70;2.50;;;;;;;27.71;37.53;103062.25;4996008;28;20026;-72